sensor_id;sensor_type;location;lat;lon;timestamp;P1;durP1;ratioP1;P2;durP2;ratioP2
16890;SDS011;8562;52.246;20.966;2023-06-26T00:00:14;7.43;;;4.70;;
16890;SDS011;8562;52.246;20.966;2023-06-26T00:02:40;9.23;;;5.80;;
16890;SDS011;8562;52.246;20.966;2023-06-26T00:05:05;7.17;;;4.57;;
16890;SDS011;8562;52.246;20.966;2023-06-26T00:07:31;6.90;;;4.87;;
16890;SDS011;8562;52.246;20.966;2023-06-26T00:09:59;6.70;;;4.90;;
16890;SDS011;8562;52.246;20.966;2023-06-26T00:12:24;7.37;;;5.23;;
16890;SDS011;8562;52.246;20.966;2023-06-26T00:14:50;7.40;;;4.47;;
16890;SDS011;8562;52.246;20.966;2023-06-26T00:17:15;7.53;;;5.17;;
16890;SDS011;8562;52.246;20.966;2023-06-26T00:19:41;6.43;;;4.93;;
16890;SDS011;8562;52.246;20.966;2023-06-26T00:22:06;10.67;;;5.60;;
16890;SDS011;8562;52.246;20.966;2023-06-26T00:24:31;7.57;;;5.20;;
16890;SDS011;8562;52.246;20.966;2023-06-26T00:26:57;6.67;;;4.90;;
16890;SDS011;8562;52.246;20.966;2023-06-26T00:29:23;9.53;;;5.13;;
16890;SDS011;8562;52.246;20.966;2023-06-26T00:31:49;8.87;;;5.17;;
16890;SDS011;8562;52.246;20.966;2023-06-26T00:34:15;7.90;;;5.33;;
16890;SDS011;8562;52.246;20.966;2023-06-26T00:36:40;7.57;;;4.47;;
16890;SDS011;8562;52.246;20.966;2023-06-26T00:39:09;6.93;;;4.70;;
16890;SDS011;8562;52.246;20.966;2023-06-26T00:41:34;8.60;;;5.13;;
16890;SDS011;8562;52.246;20.966;2023-06-26T00:43:59;7.63;;;5.27;;
16890;SDS011;8562;52.246;20.966;2023-06-26T00:46:26;11.97;;;4.80;;
16890;SDS011;8562;52.246;20.966;2023-06-26T00:48:51;7.03;;;4.87;;
16890;SDS011;8562;52.246;20.966;2023-06-26T00:51:17;7.23;;;5.60;;
16890;SDS011;8562;52.246;20.966;2023-06-26T00:53:43;7.40;;;4.37;;
16890;SDS011;8562;52.246;20.966;2023-06-26T00:56:09;8.87;;;5.93;;
16890;SDS011;8562;52.246;20.966;2023-06-26T00:58:35;7.83;;;5.40;;
16890;SDS011;8562;52.246;20.966;2023-06-26T01:01:00;7.07;;;5.03;;
16890;SDS011;8562;52.246;20.966;2023-06-26T01:03:27;9.13;;;5.77;;
16890;SDS011;8562;52.246;20.966;2023-06-26T01:05:55;7.67;;;5.73;;
16890;SDS011;8562;52.246;20.966;2023-06-26T01:08:21;9.73;;;4.77;;
16890;SDS011;8562;52.246;20.966;2023-06-26T01:10:47;7.23;;;5.07;;
16890;SDS011;8562;52.246;20.966;2023-06-26T01:13:15;6.47;;;5.10;;
16890;SDS011;8562;52.246;20.966;2023-06-26T01:15:41;6.97;;;5.07;;
16890;SDS011;8562;52.246;20.966;2023-06-26T01:18:06;7.13;;;5.07;;
16890;SDS011;8562;52.246;20.966;2023-06-26T01:20:34;11.03;;;4.87;;
16890;SDS011;8562;52.246;20.966;2023-06-26T01:28:18;12.17;;;6.37;;
16890;SDS011;8562;52.246;20.966;2023-06-26T01:30:44;7.60;;;4.80;;
16890;SDS011;8562;52.246;20.966;2023-06-26T01:33:11;8.77;;;5.57;;
16890;SDS011;8562;52.246;20.966;2023-06-26T01:35:36;9.47;;;5.00;;
16890;SDS011;8562;52.246;20.966;2023-06-26T01:38:17;7.63;;;5.90;;
16890;SDS011;8562;52.246;20.966;2023-06-26T01:40:43;9.50;;;6.00;;
16890;SDS011;8562;52.246;20.966;2023-06-26T01:43:15;6.93;;;5.13;;
16890;SDS011;8562;52.246;20.966;2023-06-26T01:45:42;9.57;;;5.93;;
16890;SDS011;8562;52.246;20.966;2023-06-26T01:48:07;8.37;;;5.97;;
16890;SDS011;8562;52.246;20.966;2023-06-26T01:50:34;5.90;;;5.13;;
16890;SDS011;8562;52.246;20.966;2023-06-26T01:53:03;8.50;;;5.47;;
16890;SDS011;8562;52.246;20.966;2023-06-26T01:57:56;9.70;;;5.67;;
16890;SDS011;8562;52.246;20.966;2023-06-26T02:00:21;12.40;;;6.03;;
16890;SDS011;8562;52.246;20.966;2023-06-26T02:02:48;8.67;;;5.07;;
16890;SDS011;8562;52.246;20.966;2023-06-26T02:05:13;7.57;;;5.57;;
16890;SDS011;8562;52.246;20.966;2023-06-26T02:07:39;7.03;;;5.93;;
16890;SDS011;8562;52.246;20.966;2023-06-26T02:10:05;12.27;;;5.70;;
16890;SDS011;8562;52.246;20.966;2023-06-26T02:12:32;6.67;;;5.10;;
16890;SDS011;8562;52.246;20.966;2023-06-26T02:14:57;7.83;;;5.70;;
16890;SDS011;8562;52.246;20.966;2023-06-26T02:17:23;7.50;;;5.27;;
16890;SDS011;8562;52.246;20.966;2023-06-26T02:19:49;6.60;;;5.13;;
16890;SDS011;8562;52.246;20.966;2023-06-26T02:22:15;8.23;;;5.50;;
16890;SDS011;8562;52.246;20.966;2023-06-26T02:24:40;8.37;;;5.97;;
16890;SDS011;8562;52.246;20.966;2023-06-26T02:27:06;5.70;;;4.87;;
16890;SDS011;8562;52.246;20.966;2023-06-26T02:29:31;6.77;;;5.53;;
16890;SDS011;8562;52.246;20.966;2023-06-26T02:31:56;8.77;;;5.57;;
16890;SDS011;8562;52.246;20.966;2023-06-26T02:34:21;5.80;;;5.20;;
16890;SDS011;8562;52.246;20.966;2023-06-26T02:36:47;9.27;;;5.50;;
16890;SDS011;8562;52.246;20.966;2023-06-26T02:39:13;10.03;;;5.37;;
16890;SDS011;8562;52.246;20.966;2023-06-26T02:41:39;14.23;;;5.43;;
16890;SDS011;8562;52.246;20.966;2023-06-26T02:44:05;8.73;;;5.80;;
16890;SDS011;8562;52.246;20.966;2023-06-26T02:46:31;5.90;;;5.00;;
16890;SDS011;8562;52.246;20.966;2023-06-26T02:48:57;7.60;;;4.80;;
16890;SDS011;8562;52.246;20.966;2023-06-26T02:51:22;9.00;;;5.40;;
16890;SDS011;8562;52.246;20.966;2023-06-26T02:53:48;7.40;;;5.07;;
16890;SDS011;8562;52.246;20.966;2023-06-26T02:56:13;8.77;;;5.23;;
16890;SDS011;8562;52.246;20.966;2023-06-26T02:58:39;7.70;;;4.93;;
16890;SDS011;8562;52.246;20.966;2023-06-26T03:01:05;6.33;;;5.07;;
16890;SDS011;8562;52.246;20.966;2023-06-26T03:03:30;11.27;;;5.17;;
16890;SDS011;8562;52.246;20.966;2023-06-26T03:05:56;7.83;;;5.30;;
16890;SDS011;8562;52.246;20.966;2023-06-26T03:08:22;8.27;;;5.40;;
16890;SDS011;8562;52.246;20.966;2023-06-26T03:10:48;8.70;;;5.20;;
16890;SDS011;8562;52.246;20.966;2023-06-26T03:13:14;8.77;;;5.50;;
16890;SDS011;8562;52.246;20.966;2023-06-26T03:15:39;6.10;;;4.77;;
16890;SDS011;8562;52.246;20.966;2023-06-26T03:18:05;7.27;;;5.27;;
16890;SDS011;8562;52.246;20.966;2023-06-26T03:20:30;6.80;;;5.17;;
16890;SDS011;8562;52.246;20.966;2023-06-26T03:22:57;7.33;;;6.13;;
16890;SDS011;8562;52.246;20.966;2023-06-26T03:25:23;6.67;;;5.10;;
16890;SDS011;8562;52.246;20.966;2023-06-26T03:27:54;8.43;;;5.50;;
16890;SDS011;8562;52.246;20.966;2023-06-26T03:30:19;7.77;;;5.03;;
16890;SDS011;8562;52.246;20.966;2023-06-26T03:32:48;9.50;;;5.73;;
16890;SDS011;8562;52.246;20.966;2023-06-26T03:35:14;8.40;;;5.80;;
16890;SDS011;8562;52.246;20.966;2023-06-26T03:37:40;7.83;;;5.87;;
16890;SDS011;8562;52.246;20.966;2023-06-26T03:40:06;6.70;;;4.97;;
16890;SDS011;8562;52.246;20.966;2023-06-26T03:42:32;7.03;;;5.33;;
16890;SDS011;8562;52.246;20.966;2023-06-26T03:44:57;8.67;;;6.03;;
16890;SDS011;8562;52.246;20.966;2023-06-26T03:47:22;8.63;;;6.03;;
16890;SDS011;8562;52.246;20.966;2023-06-26T03:49:48;7.23;;;5.37;;
16890;SDS011;8562;52.246;20.966;2023-06-26T03:52:13;9.37;;;6.30;;
16890;SDS011;8562;52.246;20.966;2023-06-26T03:54:39;9.60;;;6.20;;
16890;SDS011;8562;52.246;20.966;2023-06-26T03:57:04;7.17;;;5.43;;
16890;SDS011;8562;52.246;20.966;2023-06-26T03:59:30;6.73;;;5.90;;
16890;SDS011;8562;52.246;20.966;2023-06-26T04:01:55;8.80;;;5.67;;
16890;SDS011;8562;52.246;20.966;2023-06-26T04:04:21;8.33;;;5.87;;
16890;SDS011;8562;52.246;20.966;2023-06-26T04:06:46;9.20;;;6.10;;
16890;SDS011;8562;52.246;20.966;2023-06-26T04:09:12;7.23;;;5.90;;
16890;SDS011;8562;52.246;20.966;2023-06-26T04:11:37;7.77;;;5.60;;
16890;SDS011;8562;52.246;20.966;2023-06-26T04:14:02;8.97;;;5.80;;
16890;SDS011;8562;52.246;20.966;2023-06-26T04:16:28;7.30;;;4.93;;
16890;SDS011;8562;52.246;20.966;2023-06-26T04:18:53;10.37;;;5.73;;
16890;SDS011;8562;52.246;20.966;2023-06-26T04:21:20;9.17;;;5.77;;
16890;SDS011;8562;52.246;20.966;2023-06-26T04:23:46;9.90;;;6.27;;
16890;SDS011;8562;52.246;20.966;2023-06-26T04:26:12;13.10;;;6.37;;
16890;SDS011;8562;52.246;20.966;2023-06-26T04:28:39;7.77;;;5.50;;
16890;SDS011;8562;52.246;20.966;2023-06-26T04:31:05;7.40;;;5.63;;
16890;SDS011;8562;52.246;20.966;2023-06-26T04:33:30;8.03;;;5.63;;
16890;SDS011;8562;52.246;20.966;2023-06-26T04:35:56;9.90;;;5.97;;
16890;SDS011;8562;52.246;20.966;2023-06-26T04:38:21;8.43;;;6.10;;
16890;SDS011;8562;52.246;20.966;2023-06-26T04:40:47;7.40;;;5.50;;
16890;SDS011;8562;52.246;20.966;2023-06-26T04:43:12;6.20;;;5.20;;
16890;SDS011;8562;52.246;20.966;2023-06-26T04:45:38;7.80;;;5.53;;
16890;SDS011;8562;52.246;20.966;2023-06-26T04:48:03;7.77;;;5.07;;
16890;SDS011;8562;52.246;20.966;2023-06-26T04:50:29;6.87;;;5.73;;
16890;SDS011;8562;52.246;20.966;2023-06-26T04:52:55;6.60;;;5.27;;
16890;SDS011;8562;52.246;20.966;2023-06-26T04:55:21;13.33;;;6.20;;
16890;SDS011;8562;52.246;20.966;2023-06-26T04:57:49;9.70;;;6.13;;
16890;SDS011;8562;52.246;20.966;2023-06-26T05:00:14;6.73;;;5.70;;
16890;SDS011;8562;52.246;20.966;2023-06-26T05:02:40;7.27;;;4.70;;
16890;SDS011;8562;52.246;20.966;2023-06-26T05:05:05;7.90;;;4.87;;
16890;SDS011;8562;52.246;20.966;2023-06-26T05:07:31;7.93;;;5.53;;
16890;SDS011;8562;52.246;20.966;2023-06-26T05:09:56;7.20;;;5.20;;
16890;SDS011;8562;52.246;20.966;2023-06-26T05:12:21;6.07;;;4.73;;
16890;SDS011;8562;52.246;20.966;2023-06-26T05:14:47;6.33;;;4.53;;
16890;SDS011;8562;52.246;20.966;2023-06-26T05:17:13;6.47;;;4.63;;
16890;SDS011;8562;52.246;20.966;2023-06-26T05:19:39;5.30;;;4.70;;
16890;SDS011;8562;52.246;20.966;2023-06-26T05:22:04;6.50;;;5.03;;
16890;SDS011;8562;52.246;20.966;2023-06-26T05:24:37;7.77;;;5.00;;
16890;SDS011;8562;52.246;20.966;2023-06-26T05:27:03;7.80;;;5.57;;
16890;SDS011;8562;52.246;20.966;2023-06-26T05:29:32;4.53;;;3.87;;
16890;SDS011;8562;52.246;20.966;2023-06-26T05:31:57;6.67;;;4.97;;
16890;SDS011;8562;52.246;20.966;2023-06-26T05:34:23;7.90;;;4.60;;
16890;SDS011;8562;52.246;20.966;2023-06-26T05:36:52;6.93;;;5.50;;
16890;SDS011;8562;52.246;20.966;2023-06-26T05:39:20;6.13;;;4.77;;
16890;SDS011;8562;52.246;20.966;2023-06-26T05:41:46;8.13;;;5.13;;
16890;SDS011;8562;52.246;20.966;2023-06-26T05:44:11;6.63;;;4.87;;
16890;SDS011;8562;52.246;20.966;2023-06-26T05:46:37;6.03;;;5.03;;
16890;SDS011;8562;52.246;20.966;2023-06-26T05:49:02;4.90;;;4.25;;
16890;SDS011;8562;52.246;20.966;2023-06-26T05:51:28;6.28;;;4.32;;
16890;SDS011;8562;52.246;20.966;2023-06-26T05:53:54;6.82;;;5.07;;
16890;SDS011;8562;52.246;20.966;2023-06-26T05:56:20;5.03;;;4.10;;
16890;SDS011;8562;52.246;20.966;2023-06-26T05:58:45;5.63;;;4.57;;
16890;SDS011;8562;52.246;20.966;2023-06-26T06:01:11;4.95;;;4.13;;
16890;SDS011;8562;52.246;20.966;2023-06-26T06:03:36;5.38;;;4.13;;
16890;SDS011;8562;52.246;20.966;2023-06-26T06:06:02;8.13;;;3.92;;
16890;SDS011;8562;52.246;20.966;2023-06-26T06:08:28;6.93;;;4.40;;
16890;SDS011;8562;52.246;20.966;2023-06-26T06:10:53;5.55;;;4.40;;
16890;SDS011;8562;52.246;20.966;2023-06-26T06:13:18;6.80;;;3.47;;
16890;SDS011;8562;52.246;20.966;2023-06-26T06:15:44;6.27;;;4.10;;
16890;SDS011;8562;52.246;20.966;2023-06-26T06:18:09;6.63;;;4.50;;
16890;SDS011;8562;52.246;20.966;2023-06-26T06:20:35;5.17;;;3.50;;
16890;SDS011;8562;52.246;20.966;2023-06-26T06:23:00;4.50;;;3.83;;
16890;SDS011;8562;52.246;20.966;2023-06-26T06:25:25;5.27;;;3.57;;
16890;SDS011;8562;52.246;20.966;2023-06-26T06:27:51;6.87;;;4.03;;
16890;SDS011;8562;52.246;20.966;2023-06-26T06:30:16;4.13;;;3.47;;
16890;SDS011;8562;52.246;20.966;2023-06-26T06:32:41;5.83;;;3.57;;
16890;SDS011;8562;52.246;20.966;2023-06-26T06:35:07;4.23;;;3.37;;
16890;SDS011;8562;52.246;20.966;2023-06-26T06:37:35;4.23;;;3.43;;
16890;SDS011;8562;52.246;20.966;2023-06-26T06:40:01;4.03;;;3.07;;
16890;SDS011;8562;52.246;20.966;2023-06-26T06:42:26;6.90;;;3.33;;
16890;SDS011;8562;52.246;20.966;2023-06-26T06:44:51;5.13;;;2.97;;
16890;SDS011;8562;52.246;20.966;2023-06-26T06:47:16;5.43;;;3.30;;
16890;SDS011;8562;52.246;20.966;2023-06-26T06:49:42;4.30;;;2.93;;
16890;SDS011;8562;52.246;20.966;2023-06-26T06:52:07;4.23;;;2.90;;
16890;SDS011;8562;52.246;20.966;2023-06-26T06:54:33;4.40;;;2.97;;
16890;SDS011;8562;52.246;20.966;2023-06-26T06:57:15;2.60;;;2.37;;
16890;SDS011;8562;52.246;20.966;2023-06-26T06:59:41;4.03;;;2.73;;
16890;SDS011;8562;52.246;20.966;2023-06-26T07:02:07;3.63;;;2.63;;
16890;SDS011;8562;52.246;20.966;2023-06-26T07:04:32;5.10;;;3.10;;
16890;SDS011;8562;52.246;20.966;2023-06-26T07:06:57;3.23;;;2.93;;
16890;SDS011;8562;52.246;20.966;2023-06-26T07:09:23;3.93;;;2.70;;
16890;SDS011;8562;52.246;20.966;2023-06-26T07:11:48;3.17;;;2.60;;
16890;SDS011;8562;52.246;20.966;2023-06-26T07:14:13;2.83;;;2.40;;
16890;SDS011;8562;52.246;20.966;2023-06-26T07:16:39;4.47;;;3.40;;
16890;SDS011;8562;52.246;20.966;2023-06-26T07:19:04;4.73;;;2.43;;
16890;SDS011;8562;52.246;20.966;2023-06-26T07:21:29;5.40;;;2.67;;
16890;SDS011;8562;52.246;20.966;2023-06-26T07:23:54;5.90;;;2.87;;
16890;SDS011;8562;52.246;20.966;2023-06-26T07:26:20;4.63;;;3.00;;
16890;SDS011;8562;52.246;20.966;2023-06-26T07:28:47;3.23;;;2.77;;
16890;SDS011;8562;52.246;20.966;2023-06-26T07:31:13;3.53;;;2.70;;
16890;SDS011;8562;52.246;20.966;2023-06-26T07:33:39;4.13;;;3.10;;
16890;SDS011;8562;52.246;20.966;2023-06-26T07:36:05;4.03;;;2.50;;
16890;SDS011;8562;52.246;20.966;2023-06-26T07:38:30;3.80;;;2.73;;
16890;SDS011;8562;52.246;20.966;2023-06-26T07:40:56;4.13;;;3.07;;
16890;SDS011;8562;52.246;20.966;2023-06-26T07:43:21;3.23;;;2.20;;
16890;SDS011;8562;52.246;20.966;2023-06-26T07:45:48;4.03;;;2.53;;
16890;SDS011;8562;52.246;20.966;2023-06-26T07:48:13;3.77;;;2.97;;
16890;SDS011;8562;52.246;20.966;2023-06-26T07:50:38;3.53;;;3.23;;
16890;SDS011;8562;52.246;20.966;2023-06-26T07:53:04;3.00;;;2.67;;
16890;SDS011;8562;52.246;20.966;2023-06-26T07:55:30;3.23;;;2.50;;
16890;SDS011;8562;52.246;20.966;2023-06-26T07:57:56;2.93;;;2.60;;
16890;SDS011;8562;52.246;20.966;2023-06-26T08:00:21;2.90;;;2.57;;
16890;SDS011;8562;52.246;20.966;2023-06-26T08:02:47;3.33;;;2.87;;
16890;SDS011;8562;52.246;20.966;2023-06-26T08:05:13;3.23;;;2.93;;
16890;SDS011;8562;52.246;20.966;2023-06-26T08:07:41;4.23;;;3.00;;
16890;SDS011;8562;52.246;20.966;2023-06-26T08:10:06;4.23;;;3.07;;
16890;SDS011;8562;52.246;20.966;2023-06-26T08:12:32;3.77;;;2.80;;
16890;SDS011;8562;52.246;20.966;2023-06-26T08:14:57;4.43;;;3.30;;
16890;SDS011;8562;52.246;20.966;2023-06-26T08:17:22;4.37;;;2.90;;
16890;SDS011;8562;52.246;20.966;2023-06-26T08:19:48;3.63;;;2.90;;
16890;SDS011;8562;52.246;20.966;2023-06-26T08:22:13;3.50;;;2.63;;
16890;SDS011;8562;52.246;20.966;2023-06-26T08:24:38;3.70;;;2.97;;
16890;SDS011;8562;52.246;20.966;2023-06-26T08:27:04;3.10;;;2.70;;
16890;SDS011;8562;52.246;20.966;2023-06-26T08:29:29;4.40;;;3.13;;
16890;SDS011;8562;52.246;20.966;2023-06-26T08:31:54;3.40;;;2.80;;
16890;SDS011;8562;52.246;20.966;2023-06-26T08:34:20;3.40;;;2.53;;
16890;SDS011;8562;52.246;20.966;2023-06-26T08:36:45;3.43;;;2.40;;
16890;SDS011;8562;52.246;20.966;2023-06-26T08:39:10;2.87;;;2.40;;
16890;SDS011;8562;52.246;20.966;2023-06-26T08:41:36;4.43;;;2.93;;
16890;SDS011;8562;52.246;20.966;2023-06-26T08:44:02;3.70;;;2.73;;
16890;SDS011;8562;52.246;20.966;2023-06-26T08:46:27;9.40;;;2.83;;
16890;SDS011;8562;52.246;20.966;2023-06-26T08:48:56;2.70;;;2.40;;
16890;SDS011;8562;52.246;20.966;2023-06-26T08:51:25;3.27;;;2.70;;
16890;SDS011;8562;52.246;20.966;2023-06-26T08:54:00;3.27;;;2.50;;
16890;SDS011;8562;52.246;20.966;2023-06-26T08:56:32;3.10;;;2.73;;
16890;SDS011;8562;52.246;20.966;2023-06-26T08:58:57;3.60;;;2.77;;
16890;SDS011;8562;52.246;20.966;2023-06-26T09:01:23;3.47;;;2.40;;
16890;SDS011;8562;52.246;20.966;2023-06-26T09:03:49;4.23;;;2.27;;
16890;SDS011;8562;52.246;20.966;2023-06-26T09:06:15;2.90;;;2.67;;
16890;SDS011;8562;52.246;20.966;2023-06-26T09:08:41;2.77;;;2.53;;
16890;SDS011;8562;52.246;20.966;2023-06-26T09:11:06;3.67;;;2.90;;
16890;SDS011;8562;52.246;20.966;2023-06-26T09:13:31;7.80;;;3.20;;
16890;SDS011;8562;52.246;20.966;2023-06-26T09:15:57;3.67;;;2.43;;
16890;SDS011;8562;52.246;20.966;2023-06-26T09:18:22;3.73;;;3.23;;
16890;SDS011;8562;52.246;20.966;2023-06-26T09:20:48;4.00;;;2.93;;
16890;SDS011;8562;52.246;20.966;2023-06-26T09:23:13;2.80;;;2.53;;
16890;SDS011;8562;52.246;20.966;2023-06-26T09:25:39;3.10;;;2.80;;
16890;SDS011;8562;52.246;20.966;2023-06-26T09:28:05;3.53;;;2.77;;
16890;SDS011;8562;52.246;20.966;2023-06-26T09:30:33;3.07;;;2.37;;
16890;SDS011;8562;52.246;20.966;2023-06-26T09:33:18;3.50;;;2.53;;
16890;SDS011;8562;52.246;20.966;2023-06-26T09:35:44;3.57;;;2.67;;
16890;SDS011;8562;52.246;20.966;2023-06-26T09:38:10;3.30;;;2.50;;
16890;SDS011;8562;52.246;20.966;2023-06-26T09:40:36;2.90;;;2.33;;
16890;SDS011;8562;52.246;20.966;2023-06-26T09:43:06;3.00;;;2.70;;
16890;SDS011;8562;52.246;20.966;2023-06-26T09:45:32;3.17;;;2.33;;
16890;SDS011;8562;52.246;20.966;2023-06-26T09:48:01;6.00;;;2.80;;
16890;SDS011;8562;52.246;20.966;2023-06-26T09:50:28;3.37;;;2.67;;
16890;SDS011;8562;52.246;20.966;2023-06-26T09:52:53;3.57;;;2.57;;
16890;SDS011;8562;52.246;20.966;2023-06-26T09:55:19;2.43;;;2.23;;
16890;SDS011;8562;52.246;20.966;2023-06-26T09:57:44;3.27;;;2.60;;
16890;SDS011;8562;52.246;20.966;2023-06-26T10:00:11;4.90;;;3.07;;
16890;SDS011;8562;52.246;20.966;2023-06-26T10:02:40;3.07;;;2.77;;
16890;SDS011;8562;52.246;20.966;2023-06-26T10:05:05;4.20;;;2.93;;
16890;SDS011;8562;52.246;20.966;2023-06-26T10:07:30;4.90;;;3.20;;
16890;SDS011;8562;52.246;20.966;2023-06-26T10:09:56;4.27;;;3.20;;
16890;SDS011;8562;52.246;20.966;2023-06-26T10:12:29;2.80;;;2.20;;
16890;SDS011;8562;52.246;20.966;2023-06-26T10:14:55;2.83;;;2.10;;
16890;SDS011;8562;52.246;20.966;2023-06-26T10:17:21;2.73;;;2.37;;
16890;SDS011;8562;52.246;20.966;2023-06-26T10:19:47;3.37;;;2.53;;
16890;SDS011;8562;52.246;20.966;2023-06-26T10:22:15;3.30;;;2.20;;
16890;SDS011;8562;52.246;20.966;2023-06-26T10:24:40;2.20;;;2.00;;
16890;SDS011;8562;52.246;20.966;2023-06-26T10:27:12;4.63;;;2.40;;
16890;SDS011;8562;52.246;20.966;2023-06-26T10:29:39;2.73;;;2.30;;
16890;SDS011;8562;52.246;20.966;2023-06-26T10:32:04;2.53;;;2.07;;
16890;SDS011;8562;52.246;20.966;2023-06-26T10:34:31;2.57;;;2.00;;
16890;SDS011;8562;52.246;20.966;2023-06-26T10:37:00;3.03;;;2.43;;
16890;SDS011;8562;52.246;20.966;2023-06-26T10:39:50;3.70;;;2.10;;
16890;SDS011;8562;52.246;20.966;2023-06-26T10:42:19;3.50;;;2.70;;
16890;SDS011;8562;52.246;20.966;2023-06-26T10:44:46;3.73;;;2.53;;
16890;SDS011;8562;52.246;20.966;2023-06-26T10:47:28;3.57;;;2.40;;
16890;SDS011;8562;52.246;20.966;2023-06-26T10:49:54;4.23;;;2.63;;
16890;SDS011;8562;52.246;20.966;2023-06-26T10:52:19;3.17;;;2.33;;
16890;SDS011;8562;52.246;20.966;2023-06-26T10:54:44;5.00;;;2.60;;
16890;SDS011;8562;52.246;20.966;2023-06-26T10:57:10;5.03;;;2.70;;
16890;SDS011;8562;52.246;20.966;2023-06-26T10:59:38;3.57;;;2.80;;
16890;SDS011;8562;52.246;20.966;2023-06-26T11:02:04;2.60;;;2.40;;
16890;SDS011;8562;52.246;20.966;2023-06-26T11:04:46;2.40;;;2.20;;
16890;SDS011;8562;52.246;20.966;2023-06-26T11:09:53;6.10;;;1.97;;
16890;SDS011;8562;52.246;20.966;2023-06-26T11:12:33;3.30;;;2.20;;
16890;SDS011;8562;52.246;20.966;2023-06-26T11:14:58;4.23;;;2.23;;
16890;SDS011;8562;52.246;20.966;2023-06-26T11:17:24;4.97;;;2.40;;
16890;SDS011;8562;52.246;20.966;2023-06-26T11:19:49;2.47;;;2.10;;
16890;SDS011;8562;52.246;20.966;2023-06-26T11:22:15;2.43;;;2.07;;
16890;SDS011;8562;52.246;20.966;2023-06-26T11:24:40;3.70;;;2.50;;
16890;SDS011;8562;52.246;20.966;2023-06-26T11:27:06;4.17;;;2.30;;
16890;SDS011;8562;52.246;20.966;2023-06-26T11:29:32;4.53;;;2.60;;
16890;SDS011;8562;52.246;20.966;2023-06-26T11:32:01;3.53;;;2.70;;
16890;SDS011;8562;52.246;20.966;2023-06-26T11:34:29;3.50;;;2.10;;
16890;SDS011;8562;52.246;20.966;2023-06-26T11:36:56;2.50;;;2.23;;
16890;SDS011;8562;52.246;20.966;2023-06-26T11:39:21;2.93;;;2.00;;
16890;SDS011;8562;52.246;20.966;2023-06-26T11:41:46;2.23;;;2.03;;
16890;SDS011;8562;52.246;20.966;2023-06-26T11:44:12;3.10;;;2.43;;
16890;SDS011;8562;52.246;20.966;2023-06-26T11:46:39;2.20;;;2.00;;
16890;SDS011;8562;52.246;20.966;2023-06-26T11:49:07;3.27;;;1.87;;
16890;SDS011;8562;52.246;20.966;2023-06-26T11:51:33;2.30;;;2.03;;
16890;SDS011;8562;52.246;20.966;2023-06-26T11:54:00;2.50;;;2.30;;
16890;SDS011;8562;52.246;20.966;2023-06-26T11:56:26;3.60;;;2.33;;
16890;SDS011;8562;52.246;20.966;2023-06-26T11:58:59;3.17;;;2.30;;
16890;SDS011;8562;52.246;20.966;2023-06-26T12:01:25;2.40;;;2.07;;
16890;SDS011;8562;52.246;20.966;2023-06-26T12:03:53;2.83;;;2.20;;
16890;SDS011;8562;52.246;20.966;2023-06-26T12:06:18;2.53;;;1.87;;
16890;SDS011;8562;52.246;20.966;2023-06-26T12:08:43;2.57;;;2.10;;
16890;SDS011;8562;52.246;20.966;2023-06-26T12:11:09;4.27;;;2.30;;
16890;SDS011;8562;52.246;20.966;2023-06-26T12:13:34;3.07;;;2.17;;
16890;SDS011;8562;52.246;20.966;2023-06-26T12:16:00;3.23;;;2.80;;
16890;SDS011;8562;52.246;20.966;2023-06-26T12:18:25;2.90;;;2.20;;
16890;SDS011;8562;52.246;20.966;2023-06-26T12:20:51;2.33;;;2.00;;
16890;SDS011;8562;52.246;20.966;2023-06-26T12:23:17;2.53;;;2.17;;
16890;SDS011;8562;52.246;20.966;2023-06-26T12:25:43;3.00;;;2.33;;
16890;SDS011;8562;52.246;20.966;2023-06-26T12:28:15;4.60;;;2.47;;
16890;SDS011;8562;52.246;20.966;2023-06-26T12:30:40;2.53;;;2.10;;
16890;SDS011;8562;52.246;20.966;2023-06-26T12:33:12;2.50;;;2.17;;
16890;SDS011;8562;52.246;20.966;2023-06-26T12:35:37;4.13;;;2.00;;
16890;SDS011;8562;52.246;20.966;2023-06-26T12:38:05;3.20;;;1.90;;
16890;SDS011;8562;52.246;20.966;2023-06-26T12:40:30;4.10;;;2.53;;
16890;SDS011;8562;52.246;20.966;2023-06-26T12:42:56;2.43;;;2.17;;
16890;SDS011;8562;52.246;20.966;2023-06-26T12:45:21;3.00;;;2.37;;
16890;SDS011;8562;52.246;20.966;2023-06-26T12:47:47;2.77;;;2.03;;
16890;SDS011;8562;52.246;20.966;2023-06-26T12:50:13;3.00;;;2.00;;
16890;SDS011;8562;52.246;20.966;2023-06-26T12:52:38;6.97;;;2.70;;
16890;SDS011;8562;52.246;20.966;2023-06-26T12:55:04;3.47;;;2.10;;
16890;SDS011;8562;52.246;20.966;2023-06-26T12:57:30;3.43;;;2.00;;
16890;SDS011;8562;52.246;20.966;2023-06-26T12:59:55;3.07;;;2.20;;
16890;SDS011;8562;52.246;20.966;2023-06-26T13:02:20;3.00;;;2.37;;
16890;SDS011;8562;52.246;20.966;2023-06-26T13:04:46;2.97;;;2.23;;
16890;SDS011;8562;52.246;20.966;2023-06-26T13:07:11;2.20;;;2.00;;
16890;SDS011;8562;52.246;20.966;2023-06-26T13:09:37;3.07;;;2.13;;
16890;SDS011;8562;52.246;20.966;2023-06-26T13:12:06;3.30;;;2.30;;
16890;SDS011;8562;52.246;20.966;2023-06-26T13:14:31;2.27;;;2.00;;
16890;SDS011;8562;52.246;20.966;2023-06-26T13:16:57;3.97;;;2.03;;
16890;SDS011;8562;52.246;20.966;2023-06-26T13:19:22;2.53;;;2.20;;
16890;SDS011;8562;52.246;20.966;2023-06-26T13:21:47;3.37;;;2.20;;
16890;SDS011;8562;52.246;20.966;2023-06-26T13:24:12;2.10;;;1.90;;
16890;SDS011;8562;52.246;20.966;2023-06-26T13:26:38;2.87;;;2.33;;
16890;SDS011;8562;52.246;20.966;2023-06-26T13:29:04;2.47;;;2.13;;
16890;SDS011;8562;52.246;20.966;2023-06-26T13:31:29;2.90;;;2.10;;
16890;SDS011;8562;52.246;20.966;2023-06-26T13:33:56;2.63;;;1.93;;
16890;SDS011;8562;52.246;20.966;2023-06-26T13:36:22;3.13;;;2.10;;
16890;SDS011;8562;52.246;20.966;2023-06-26T13:38:47;3.07;;;2.03;;
16890;SDS011;8562;52.246;20.966;2023-06-26T13:41:19;2.53;;;2.33;;
16890;SDS011;8562;52.246;20.966;2023-06-26T13:43:46;2.93;;;2.23;;
16890;SDS011;8562;52.246;20.966;2023-06-26T13:46:11;4.23;;;2.33;;
16890;SDS011;8562;52.246;20.966;2023-06-26T13:48:36;2.67;;;2.40;;
16890;SDS011;8562;52.246;20.966;2023-06-26T13:51:02;2.93;;;2.37;;
16890;SDS011;8562;52.246;20.966;2023-06-26T13:53:27;4.63;;;2.50;;
16890;SDS011;8562;52.246;20.966;2023-06-26T13:55:52;3.30;;;2.57;;
16890;SDS011;8562;52.246;20.966;2023-06-26T13:58:18;2.70;;;2.03;;
16890;SDS011;8562;52.246;20.966;2023-06-26T14:00:44;3.33;;;2.40;;
16890;SDS011;8562;52.246;20.966;2023-06-26T14:03:09;3.63;;;2.00;;
16890;SDS011;8562;52.246;20.966;2023-06-26T14:05:35;3.83;;;2.27;;
16890;SDS011;8562;52.246;20.966;2023-06-26T14:08:04;4.30;;;2.30;;
16890;SDS011;8562;52.246;20.966;2023-06-26T14:10:30;2.20;;;1.90;;
16890;SDS011;8562;52.246;20.966;2023-06-26T14:12:55;4.77;;;2.47;;
16890;SDS011;8562;52.246;20.966;2023-06-26T14:15:20;3.17;;;2.30;;
16890;SDS011;8562;52.246;20.966;2023-06-26T14:17:46;3.37;;;2.40;;
16890;SDS011;8562;52.246;20.966;2023-06-26T14:20:12;2.40;;;2.20;;
16890;SDS011;8562;52.246;20.966;2023-06-26T14:22:38;3.30;;;2.50;;
16890;SDS011;8562;52.246;20.966;2023-06-26T14:25:04;2.30;;;2.10;;
16890;SDS011;8562;52.246;20.966;2023-06-26T14:27:30;2.43;;;1.90;;
16890;SDS011;8562;52.246;20.966;2023-06-26T14:29:55;3.63;;;2.53;;
16890;SDS011;8562;52.246;20.966;2023-06-26T14:32:20;2.50;;;2.30;;
16890;SDS011;8562;52.246;20.966;2023-06-26T14:34:45;2.77;;;2.53;;
16890;SDS011;8562;52.246;20.966;2023-06-26T14:37:11;2.53;;;2.20;;
16890;SDS011;8562;52.246;20.966;2023-06-26T14:39:36;4.60;;;2.43;;
16890;SDS011;8562;52.246;20.966;2023-06-26T14:42:03;4.67;;;2.43;;
16890;SDS011;8562;52.246;20.966;2023-06-26T14:44:29;2.50;;;2.20;;
16890;SDS011;8562;52.246;20.966;2023-06-26T14:46:54;2.43;;;2.10;;
16890;SDS011;8562;52.246;20.966;2023-06-26T14:49:20;4.90;;;2.33;;
16890;SDS011;8562;52.246;20.966;2023-06-26T14:51:46;3.90;;;2.20;;